createdAt,value
2022-10-29T00:02:55.701Z,1012.11
2022-10-29T00:05:55.630Z,1012.06
2022-10-29T00:08:55.653Z,1012.07
2022-10-29T00:11:55.633Z,1012.11
2022-10-29T00:14:55.639Z,1012.17
2022-10-29T00:17:55.892Z,1012.11
2022-10-29T00:20:55.632Z,1012.15
2022-10-29T00:23:55.629Z,1012.21
2022-10-29T00:26:55.623Z,1012.22
2022-10-29T00:29:55.623Z,1012.19
2022-10-29T00:32:55.846Z,1012.19
2022-10-29T00:35:55.621Z,1012.15
2022-10-29T00:38:55.834Z,1012.16
2022-10-29T00:41:55.797Z,1012.14
2022-10-29T00:44:55.781Z,1012.11
2022-10-29T00:47:55.967Z,1012.11
2022-10-29T00:50:55.774Z,1012.16
2022-10-29T00:53:55.778Z,1012.18
2022-10-29T00:56:55.773Z,1012.12
2022-10-29T00:59:55.776Z,1012.1
2022-10-29T01:02:56.009Z,1012.13
2022-10-29T01:05:55.774Z,1012.17
2022-10-29T01:08:55.768Z,1012.22
2022-10-29T01:11:55.765Z,1012.22
2022-10-29T01:14:55.790Z,1012.24
2022-10-29T01:17:56.000Z,1012.21
2022-10-29T01:20:55.752Z,1012.12
2022-10-29T01:23:55.758Z,1012.06
2022-10-29T01:26:55.747Z,1012
2022-10-29T01:29:55.753Z,1011.99
2022-10-29T01:32:55.950Z,1012.04
2022-10-29T01:35:55.750Z,1011.97
2022-10-29T01:38:55.741Z,1011.93
2022-10-29T01:41:55.740Z,1011.93
2022-10-29T01:44:55.750Z,1012.05
2022-10-29T01:47:55.982Z,1011.95
2022-10-29T01:50:55.742Z,1012.01
2022-10-29T01:53:55.729Z,1011.96
2022-10-29T01:56:55.730Z,1011.98
2022-10-29T01:59:56.328Z,1012.01
2022-10-29T02:02:56.048Z,1011.97
2022-10-29T02:05:55.726Z,1012.03
2022-10-29T02:08:55.724Z,1012.06
2022-10-29T02:11:55.736Z,1012.04
2022-10-29T02:14:55.728Z,1012
2022-10-29T02:17:55.960Z,1012
2022-10-29T02:20:55.726Z,1011.98
2022-10-29T02:23:55.718Z,1011.98
2022-10-29T02:26:55.719Z,1011.93
2022-10-29T02:29:55.719Z,1011.95
2022-10-29T02:32:55.915Z,1011.99
2022-10-29T02:35:55.714Z,1011.98
2022-10-29T02:38:55.720Z,1011.99
2022-10-29T02:41:55.709Z,1012
2022-10-29T02:44:55.754Z,1011.93
2022-10-29T02:47:55.954Z,1011.89
2022-10-29T02:50:55.744Z,1011.89
2022-10-29T02:53:55.743Z,1011.92
2022-10-29T02:56:55.739Z,1011.98
2022-10-29T02:59:55.731Z,1011.96
2022-10-29T03:02:56.131Z,1011.9
2022-10-29T03:05:55.732Z,1011.94
2022-10-29T03:08:55.733Z,1011.96
2022-10-29T03:11:55.738Z,1011.89
2022-10-29T03:14:55.728Z,1011.85
2022-10-29T03:17:55.961Z,1011.82
2022-10-29T03:20:55.729Z,1011.79
2022-10-29T03:23:55.726Z,1011.83
2022-10-29T03:26:55.726Z,1011.85
2022-10-29T03:29:55.726Z,1011.89
2022-10-29T03:32:55.951Z,1011.91
2022-10-29T03:35:55.787Z,1011.85
2022-10-29T03:38:55.725Z,1011.83
2022-10-29T03:41:55.726Z,1011.92
2022-10-29T03:44:55.714Z,1011.91
2022-10-29T03:47:56.016Z,1011.93
2022-10-29T03:50:55.722Z,1011.97
2022-10-29T03:53:55.722Z,1012.02
2022-10-29T03:56:55.716Z,1012.06
2022-10-29T03:59:55.723Z,1012.07
2022-10-29T04:02:56.019Z,1012.05
2022-10-29T04:05:55.730Z,1011.97
2022-10-29T04:08:55.714Z,1012.02
2022-10-29T04:11:55.715Z,1012.03
2022-10-29T04:14:55.740Z,1012.04
2022-10-29T04:17:55.889Z,1011.99
2022-10-29T04:29:55.713Z,1012.07
2022-10-29T04:32:55.893Z,1012.01
2022-10-29T04:35:55.893Z,1011.92
2022-10-29T04:38:55.880Z,1011.83
2022-10-29T04:41:55.884Z,1011.7
2022-10-29T04:44:55.878Z,1011.66
2022-10-29T04:47:56.121Z,1011.67
2022-10-29T04:50:55.888Z,1011.66
2022-10-29T04:53:55.877Z,1011.67
2022-10-29T04:56:55.866Z,1011.64
2022-10-29T04:59:55.864Z,1011.68
2022-10-29T05:02:56.084Z,1011.68
2022-10-29T05:05:55.867Z,1011.69
2022-10-29T05:08:55.860Z,1011.77
2022-10-29T05:11:55.863Z,1011.83
2022-10-29T05:14:55.864Z,1011.86
2022-10-29T05:17:56.100Z,1011.88
2022-10-29T05:20:55.867Z,1011.82
2022-10-29T05:23:55.865Z,1011.74
2022-10-29T05:26:55.865Z,1011.69
2022-10-29T05:29:55.864Z,1011.71
2022-10-29T05:32:56.075Z,1011.74
2022-10-29T05:35:55.858Z,1011.8
2022-10-29T05:38:55.863Z,1011.79
2022-10-29T05:41:55.854Z,1011.75
2022-10-29T05:44:55.856Z,1011.73
2022-10-29T05:47:55.894Z,1011.76
2022-10-29T05:50:55.860Z,1011.76
2022-10-29T05:53:55.859Z,1011.68
2022-10-29T05:56:55.860Z,1011.68
2022-10-29T05:59:55.853Z,1011.68
2022-10-29T06:02:56.124Z,1011.65
2022-10-29T06:05:55.848Z,1011.69
2022-10-29T06:08:55.851Z,1011.74
2022-10-29T06:11:55.846Z,1011.78
2022-10-29T06:14:55.852Z,1011.74
2022-10-29T06:17:56.208Z,1011.75
2022-10-29T06:20:55.857Z,1011.74
2022-10-29T06:23:55.853Z,1011.73
2022-10-29T06:26:55.844Z,1011.76
2022-10-29T06:29:55.849Z,1011.79
2022-10-29T06:32:56.213Z,1011.74
2022-10-29T06:35:55.842Z,1011.73
2022-10-29T06:38:55.840Z,1011.71
2022-10-29T06:41:55.846Z,1011.78
2022-10-29T06:44:55.834Z,1011.89
2022-10-29T06:47:56.130Z,1011.9
2022-10-29T06:50:55.836Z,1011.92
2022-10-29T06:53:55.834Z,1011.93
2022-10-29T06:56:55.834Z,1011.9
2022-10-29T06:59:55.830Z,1011.93
2022-10-29T07:02:56.144Z,1011.97
2022-10-29T07:05:55.827Z,1011.96
2022-10-29T07:08:55.829Z,1012.03
2022-10-29T07:11:55.827Z,1012.01
2022-10-29T07:14:55.835Z,1012.01
2022-10-29T07:17:56.066Z,1012.05
2022-10-29T07:20:55.823Z,1012
2022-10-29T07:23:55.825Z,1011.99
2022-10-29T07:26:55.821Z,1011.96
2022-10-29T07:29:55.822Z,1011.96
2022-10-29T07:32:55.901Z,1011.96
2022-10-29T07:35:55.877Z,1011.97
2022-10-29T07:38:55.874Z,1011.97
2022-10-29T07:41:58.210Z,1012.02
2022-10-29T07:44:55.870Z,1012.06
2022-10-29T07:47:59.938Z,1012.12
2022-10-29T07:50:55.870Z,1012.06
2022-10-29T07:53:55.874Z,1012.03
2022-10-29T07:56:55.867Z,1012.07
2022-10-29T07:59:55.857Z,1012.03
2022-10-29T08:02:55.874Z,1012.03
2022-10-29T08:05:56.669Z,1012.07
2022-10-29T08:08:55.858Z,1012.04
2022-10-29T08:11:55.860Z,1012.07
2022-10-29T08:14:55.859Z,1012.09
2022-10-29T08:17:55.858Z,1012.12
2022-10-29T08:20:55.857Z,1012.12
2022-10-29T08:23:55.849Z,1012.13
2022-10-29T08:26:55.850Z,1012.14
2022-10-29T08:29:55.849Z,1012.1
2022-10-29T08:32:56.088Z,1012.07
2022-10-29T08:35:55.840Z,1012.07
2022-10-29T08:38:55.840Z,1012.07
2022-10-29T08:41:55.838Z,1012.1
2022-10-29T08:44:55.839Z,1012.07
2022-10-29T08:47:55.972Z,1012.07
2022-10-29T08:50:55.834Z,1012.05
2022-10-29T08:54:24.886Z,1012.07
2022-10-29T08:56:55.830Z,1012.09
2022-10-29T08:59:55.877Z,1012.08
2022-10-29T09:02:56.061Z,1012.09
2022-10-29T09:05:55.825Z,1012.11
2022-10-29T09:08:55.830Z,1012.13
2022-10-29T09:11:55.825Z,1012.07
2022-10-29T09:14:55.817Z,1012.01
2022-10-29T09:17:56.015Z,1012.08
2022-10-29T09:20:55.815Z,1012.16
2022-10-29T09:23:55.816Z,1012.12
2022-10-29T09:26:55.831Z,1012.12
2022-10-29T09:29:55.816Z,1012.1
2022-10-29T09:32:55.827Z,1012.08
2022-10-29T09:35:55.816Z,1012.03
2022-10-29T09:38:55.817Z,1012.01
2022-10-29T09:41:55.810Z,1011.98
2022-10-29T09:44:55.820Z,1011.98
2022-10-29T09:47:56.117Z,1011.96
2022-10-29T09:50:55.867Z,1011.93
2022-10-29T09:53:55.867Z,1011.95
2022-10-29T09:56:56.232Z,1011.9
2022-10-29T09:59:55.888Z,1011.93
2022-10-29T10:02:56.466Z,1011.91
2022-10-29T10:05:55.858Z,1011.84
2022-10-29T10:08:55.853Z,1011.86
2022-10-29T10:11:55.849Z,1011.84
2022-10-29T10:14:55.855Z,1011.85
2022-10-29T10:17:56.303Z,1011.81
2022-10-29T10:20:55.844Z,1011.74
2022-10-29T10:23:55.852Z,1011.69
2022-10-29T10:26:55.848Z,1011.69
2022-10-29T10:29:55.854Z,1011.71
2022-10-29T10:32:56.044Z,1011.76
2022-10-29T10:35:55.839Z,1011.75
2022-10-29T10:38:55.833Z,1011.67
2022-10-29T10:41:55.826Z,1011.7
2022-10-29T10:44:55.837Z,1011.65
2022-10-29T10:47:56.110Z,1011.58
2022-10-29T10:50:55.838Z,1011.55
2022-10-29T10:53:55.847Z,1011.47
2022-10-29T10:56:55.836Z,1011.46
2022-10-29T10:59:55.826Z,1011.45
2022-10-29T11:02:56.098Z,1011.44
2022-10-29T11:05:55.840Z,1011.42
2022-10-29T11:08:55.837Z,1011.42
2022-10-29T11:11:57.994Z,1011.37
2022-10-29T11:14:55.837Z,1011.36
2022-10-29T11:17:56.392Z,1011.33
2022-10-29T11:20:55.836Z,1011.3
2022-10-29T11:23:55.820Z,1011.18
2022-10-29T11:26:55.821Z,1011.12
2022-10-29T11:29:55.826Z,1011.08
2022-10-29T11:32:56.179Z,1011.06
2022-10-29T11:35:57.370Z,1011.03
2022-10-29T11:38:55.828Z,1010.98
2022-10-29T11:41:55.821Z,1010.95
2022-10-29T11:44:55.827Z,1010.97
2022-10-29T11:47:56.051Z,1010.94
2022-10-29T11:50:55.818Z,1010.83
2022-10-29T11:53:55.820Z,1010.82
2022-10-29T11:56:55.820Z,1010.76
2022-10-29T11:59:55.815Z,1010.74
2022-10-29T12:02:56.123Z,1010.77
2022-10-29T12:05:55.812Z,1010.76
2022-10-29T12:08:55.824Z,1010.75
2022-10-29T12:11:55.808Z,1010.69
2022-10-29T12:14:55.807Z,1010.67
2022-10-29T12:17:56.162Z,1010.65
2022-10-29T12:20:55.810Z,1010.65
2022-10-29T12:23:55.816Z,1010.61
2022-10-29T12:26:55.811Z,1010.61
2022-10-29T12:29:55.809Z,1010.55
2022-10-29T12:32:56.133Z,1010.55
2022-10-29T12:35:55.849Z,1010.56
2022-10-29T12:38:55.806Z,1010.52
2022-10-29T12:41:55.813Z,1010.45
2022-10-29T12:44:55.806Z,1010.41
2022-10-29T12:47:56.193Z,1010.39
2022-10-29T12:50:55.914Z,1010.28
2022-10-29T12:53:55.905Z,1010.31
2022-10-29T12:56:55.898Z,1010.29
2022-10-29T12:59:55.903Z,1010.31
2022-10-29T13:02:56.508Z,1010.28
2022-10-29T13:05:55.903Z,1010.33
2022-10-29T13:08:55.951Z,1010.19
2022-10-29T13:11:55.962Z,1010.13
2022-10-29T13:14:55.972Z,1010.17
2022-10-29T13:17:56.365Z,1010.16
2022-10-29T13:20:55.964Z,1010.19
2022-10-29T13:23:55.961Z,1010.15
2022-10-29T13:26:55.959Z,1010.14
2022-10-29T13:29:55.955Z,1010.09
2022-10-29T13:32:56.220Z,1010.08
2022-10-29T13:35:55.954Z,1010.05
2022-10-29T13:39:05.478Z,1009.99
2022-10-29T13:41:55.955Z,1009.95
2022-10-29T13:44:55.958Z,1009.91
2022-10-29T13:47:55.955Z,1009.89
2022-10-29T13:50:55.942Z,1009.97
2022-10-29T13:53:55.935Z,1009.99
2022-10-29T13:56:55.939Z,1009.96
2022-10-29T13:59:55.952Z,1009.94
2022-10-29T14:02:55.943Z,1009.84
2022-10-29T14:05:55.948Z,1009.79
2022-10-29T14:08:55.950Z,1009.8
2022-10-29T14:11:55.968Z,1009.77
2022-10-29T14:14:55.942Z,1009.78
2022-10-29T14:17:55.939Z,1009.77
2022-10-29T14:20:55.929Z,1009.77
2022-10-29T14:23:55.929Z,1009.74
2022-10-29T14:26:55.931Z,1009.74
2022-10-29T14:29:55.934Z,1009.7
2022-10-29T14:32:55.925Z,1009.69
2022-10-29T14:35:55.930Z,1009.66
2022-10-29T14:38:55.927Z,1009.68
2022-10-29T14:41:55.922Z,1009.7
2022-10-29T14:44:55.923Z,1009.73
2022-10-29T14:47:55.925Z,1009.79
2022-10-29T14:50:55.925Z,1009.79
2022-10-29T14:53:55.917Z,1009.74
2022-10-29T14:56:55.922Z,1009.78
2022-10-29T14:59:55.912Z,1009.76
2022-10-29T15:02:56.234Z,1009.76
2022-10-29T15:05:55.923Z,1009.81
2022-10-29T15:08:55.905Z,1009.75
2022-10-29T15:11:55.913Z,1009.72
2022-10-29T15:14:55.921Z,1009.72
2022-10-29T15:17:56.185Z,1009.72
2022-10-29T15:20:55.970Z,1009.69
2022-10-29T15:23:55.913Z,1009.64
2022-10-29T15:26:55.909Z,1009.65
2022-10-29T15:29:55.903Z,1009.65
2022-10-29T15:32:56.053Z,1009.61
2022-10-29T15:35:55.903Z,1009.63
2022-10-29T15:38:55.898Z,1009.68
2022-10-29T15:41:55.901Z,1009.69
2022-10-29T15:44:55.901Z,1009.69
2022-10-29T15:47:56.031Z,1009.71
2022-10-29T15:50:55.900Z,1009.64
2022-10-29T15:53:55.897Z,1009.6
2022-10-29T15:56:55.891Z,1009.56
2022-10-29T15:59:55.940Z,1009.55
2022-10-29T16:02:56.243Z,1009.53
2022-10-29T16:05:55.911Z,1009.44
2022-10-29T16:08:55.908Z,1009.48
2022-10-29T16:11:55.913Z,1009.57
2022-10-29T16:14:55.922Z,1009.62
2022-10-29T16:17:56.072Z,1009.54
2022-10-29T16:20:55.905Z,1009.5
2022-10-29T16:23:55.911Z,1009.5
2022-10-29T16:26:55.903Z,1009.45
2022-10-29T16:29:55.898Z,1009.44
2022-10-29T16:32:56.214Z,1009.52
2022-10-29T16:35:55.897Z,1009.51
2022-10-29T16:38:55.908Z,1009.52
2022-10-29T16:41:55.899Z,1009.46
2022-10-29T16:44:55.897Z,1009.49
2022-10-29T16:47:56.158Z,1009.53
2022-10-29T16:50:55.933Z,1009.47
2022-10-29T16:53:55.892Z,1009.48
2022-10-29T16:56:55.892Z,1009.47
2022-10-29T16:59:55.884Z,1009.46
2022-10-29T17:02:56.172Z,1009.39
2022-10-29T17:05:55.897Z,1009.37
2022-10-29T17:08:55.901Z,1009.42
2022-10-29T17:11:55.885Z,1009.39
2022-10-29T17:14:55.935Z,1009.4
2022-10-29T17:17:56.133Z,1009.45
2022-10-29T17:20:55.882Z,1009.44
2022-10-29T17:23:55.881Z,1009.42
2022-10-29T17:26:55.875Z,1009.41
2022-10-29T17:29:55.876Z,1009.48
2022-10-29T17:32:56.170Z,1009.48
2022-10-29T17:35:55.872Z,1009.46
2022-10-29T17:38:55.871Z,1009.44
2022-10-29T17:41:55.870Z,1009.47
2022-10-29T17:44:55.867Z,1009.48
2022-10-29T17:47:56.178Z,1009.47
2022-10-29T17:50:55.876Z,1009.49
2022-10-29T17:53:55.865Z,1009.55
2022-10-29T17:56:55.863Z,1009.56
2022-10-29T17:59:55.863Z,1009.55
2022-10-29T18:02:56.036Z,1009.54
2022-10-29T18:05:55.860Z,1009.57
2022-10-29T18:08:55.860Z,1009.6
2022-10-29T18:11:55.862Z,1009.62
2022-10-29T18:14:55.862Z,1009.61
2022-10-29T18:17:55.861Z,1009.64
2022-10-29T18:20:55.856Z,1009.62
2022-10-29T18:23:55.856Z,1009.61
2022-10-29T18:26:55.851Z,1009.64
2022-10-29T18:29:55.850Z,1009.61
2022-10-29T18:32:56.116Z,1009.6
2022-10-29T18:35:56.015Z,1009.6
2022-10-29T18:38:55.878Z,1009.57
2022-10-29T18:41:55.850Z,1009.55
2022-10-29T18:44:55.847Z,1009.59
2022-10-29T18:47:56.231Z,1009.58
2022-10-29T18:50:55.847Z,1009.57
2022-10-29T18:53:55.851Z,1009.57
2022-10-29T18:56:55.833Z,1009.57
2022-10-29T18:59:55.864Z,1009.6
2022-10-29T19:02:56.081Z,1009.62
2022-10-29T19:05:55.836Z,1009.55
2022-10-29T19:08:55.828Z,1009.5
2022-10-29T19:11:56.867Z,1009.5
2022-10-29T19:14:55.840Z,1009.51
2022-10-29T19:17:56.047Z,1009.5
2022-10-29T19:20:55.826Z,1009.52
2022-10-29T19:23:55.847Z,1009.47
2022-10-29T19:26:55.869Z,1009.44
2022-10-29T19:29:55.829Z,1009.49
2022-10-29T19:32:56.077Z,1009.47
2022-10-29T19:35:55.824Z,1009.42
2022-10-29T19:38:55.822Z,1009.44
2022-10-29T19:41:55.825Z,1009.47
2022-10-29T19:44:56.425Z,1009.42
2022-10-29T19:47:56.112Z,1009.46
2022-10-29T19:50:55.831Z,1009.47
2022-10-29T19:53:55.819Z,1009.48
2022-10-29T19:56:55.818Z,1009.45
2022-10-29T19:59:55.817Z,1009.44
2022-10-29T20:02:56.111Z,1009.44
2022-10-29T20:05:55.815Z,1009.46
2022-10-29T20:08:55.944Z,1009.48
2022-10-29T20:11:55.809Z,1009.47
2022-10-29T20:14:55.811Z,1009.48
2022-10-29T20:17:56.029Z,1009.5
2022-10-29T20:20:55.888Z,1009.47
2022-10-29T20:23:55.800Z,1009.48
2022-10-29T20:26:55.800Z,1009.48
2022-10-29T20:29:55.802Z,1009.48
2022-10-29T20:32:56.098Z,1009.5
2022-10-29T20:35:55.851Z,1009.53
2022-10-29T20:38:55.799Z,1009.52
2022-10-29T20:41:55.798Z,1009.51
2022-10-29T20:44:55.800Z,1009.49
2022-10-29T20:47:56.061Z,1009.46
2022-10-29T20:50:55.787Z,1009.44
2022-10-29T20:53:55.782Z,1009.44
2022-10-29T20:56:55.784Z,1009.44
2022-10-29T20:59:55.810Z,1009.5
2022-10-29T21:02:55.784Z,1009.45
2022-10-29T21:05:56.838Z,1009.53
2022-10-29T21:08:55.781Z,1009.55
2022-10-29T21:11:55.781Z,1009.55
2022-10-29T21:14:55.782Z,1009.49
2022-10-29T21:17:55.781Z,1009.46
2022-10-29T21:20:55.778Z,1009.46
2022-10-29T21:23:55.782Z,1009.47
2022-10-29T21:26:55.780Z,1009.44
2022-10-29T21:29:55.780Z,1009.48
2022-10-29T21:32:55.778Z,1009.42
2022-10-29T21:35:55.781Z,1009.45
2022-10-29T21:38:55.773Z,1009.41
2022-10-29T21:41:55.778Z,1009.43
2022-10-29T21:44:55.773Z,1009.39
2022-10-29T21:47:55.776Z,1009.4
2022-10-29T21:50:55.772Z,1009.39
2022-10-29T21:53:55.770Z,1009.4
2022-10-29T21:56:55.767Z,1009.36
2022-10-29T21:59:55.765Z,1009.35
2022-10-29T22:02:57.969Z,1009.34
2022-10-29T22:05:55.762Z,1009.32
2022-10-29T22:08:55.818Z,1009.3
2022-10-29T22:11:55.778Z,1009.3
2022-10-29T22:14:55.873Z,1009.31
2022-10-29T22:17:55.758Z,1009.31
2022-10-29T22:20:55.766Z,1009.32
2022-10-29T22:23:55.756Z,1009.34
2022-10-29T22:26:55.765Z,1009.29
2022-10-29T22:29:55.761Z,1009.26
2022-10-29T22:32:55.755Z,1009.27
2022-10-29T22:35:55.752Z,1009.23
2022-10-29T22:38:55.752Z,1009.24
2022-10-29T22:41:55.762Z,1009.25
2022-10-29T22:44:55.747Z,1009.21
2022-10-29T22:47:55.754Z,1009.17
2022-10-29T22:50:55.746Z,1009.15
2022-10-29T22:53:55.743Z,1009.12
2022-10-29T22:56:55.744Z,1009.16
2022-10-29T22:59:55.746Z,1009.13
2022-10-29T23:02:56.011Z,1009.14
2022-10-29T23:05:55.748Z,1009.11
2022-10-29T23:08:55.746Z,1009.15
2022-10-29T23:11:55.742Z,1009.17
2022-10-29T23:14:55.739Z,1009.19
2022-10-29T23:17:55.940Z,1009.2
2022-10-29T23:20:55.739Z,1009.21
2022-10-29T23:23:55.743Z,1009.27
2022-10-29T23:26:55.738Z,1009.31
2022-10-29T23:29:55.739Z,1009.33
2022-10-29T23:32:56.016Z,1009.34
2022-10-29T23:35:55.744Z,1009.28
2022-10-29T23:38:55.720Z,1009.27
2022-10-29T23:41:55.716Z,1009.29
2022-10-29T23:44:55.726Z,1009.25
2022-10-29T23:47:55.966Z,1009.28
2022-10-29T23:50:55.713Z,1009.27
2022-10-29T23:53:56.675Z,1009.24
2022-10-29T23:56:55.715Z,1009.19
2022-10-29T23:59:55.710Z,1009.15
